createdAt,value
2022-10-30T00:03:26.021Z,15.60
2022-10-30T00:08:47.841Z,14.68
2022-10-30T00:14:09.780Z,15.50
2022-10-30T00:19:31.618Z,14.90
2022-10-30T00:24:53.481Z,14.77
2022-10-30T00:30:15.443Z,15.07
2022-10-30T00:35:37.331Z,14.85
2022-10-30T00:40:59.183Z,13.93
2022-10-30T00:46:31.134Z,14.50
2022-10-30T00:51:54.782Z,13.82
2022-10-30T00:57:16.938Z,14.07
2022-10-30T01:02:40.381Z,13.55
2022-10-30T01:08:02.542Z,14.07
2022-10-30T01:13:25.260Z,12.73
2022-10-30T01:19:25.757Z,12.88
2022-10-30T01:24:56.564Z,13.05
2022-10-30T01:30:39.988Z,12.57
2022-10-30T01:36:27.895Z,12.18
2022-10-30T01:41:49.694Z,12.65
2022-10-30T01:47:22.869Z,12.00
2022-10-30T01:53:12.994Z,12.13
2022-10-30T01:58:49.195Z,12.00
2022-10-30T02:04:13.253Z,12.63
2022-10-30T02:09:35.573Z,11.57
2022-10-30T02:15:00.224Z,12.57
2022-10-30T02:20:23.191Z,11.23
2022-10-30T02:25:45.902Z,11.90
2022-10-30T02:31:07.746Z,11.75
2022-10-30T02:36:29.768Z,11.60
2022-10-30T02:41:51.545Z,11.80
2022-10-30T02:47:13.340Z,11.70
2022-10-30T02:52:35.223Z,12.02
2022-10-30T02:57:57.044Z,11.63
2022-10-30T03:03:23.007Z,11.25
2022-10-30T03:08:46.341Z,12.35
2022-10-30T03:14:08.209Z,11.63
2022-10-30T03:19:29.980Z,12.55
2022-10-30T03:24:51.783Z,13.18
2022-10-30T03:30:13.683Z,13.18
2022-10-30T03:35:36.460Z,12.88
2022-10-30T03:40:58.649Z,12.82
2022-10-30T03:46:20.436Z,12.63
2022-10-30T03:51:42.292Z,13.88
2022-10-30T03:57:04.234Z,12.88
2022-10-30T04:02:26.058Z,13.05
2022-10-30T04:07:48.081Z,13.27
2022-10-30T04:13:11.833Z,13.68
2022-10-30T04:18:33.664Z,13.38
2022-10-30T04:23:55.489Z,13.75
2022-10-30T04:29:17.360Z,14.35
2022-10-30T04:34:39.353Z,13.18
2022-10-30T04:40:01.194Z,13.00
2022-10-30T04:45:23.025Z,12.50
2022-10-30T04:50:45.262Z,13.20
2022-10-30T04:56:07.448Z,13.10
2022-10-30T05:01:29.383Z,12.05
2022-10-30T05:06:51.278Z,12.02
2022-10-30T05:12:13.180Z,13.32
2022-10-30T05:17:34.979Z,11.80
2022-10-30T05:22:58.580Z,10.68
2022-10-30T05:28:20.450Z,11.80
2022-10-30T05:33:42.354Z,11.60
2022-10-30T05:39:04.213Z,12.43
2022-10-30T05:44:47.426Z,12.32
2022-10-30T05:50:08.585Z,12.55
2022-10-30T05:55:30.790Z,13.05
2022-10-30T06:00:53.028Z,12.30
2022-10-30T06:06:14.844Z,12.45
2022-10-30T06:11:36.683Z,13.05
2022-10-30T06:16:58.551Z,12.48
2022-10-30T06:22:20.393Z,11.75
2022-10-30T06:27:43.597Z,11.55
2022-10-30T06:33:05.905Z,11.20
2022-10-30T06:38:27.696Z,10.45
2022-10-30T06:43:49.513Z,9.70
2022-10-30T06:49:12.199Z,9.50
2022-10-30T06:54:34.152Z,9.50
2022-10-30T06:59:56.103Z,9.95
2022-10-30T07:05:17.918Z,8.63
2022-10-30T07:10:40.163Z,8.43
2022-10-30T07:16:01.982Z,8.98
2022-10-30T07:21:25.949Z,9.48
2022-10-30T07:26:47.762Z,9.98
2022-10-30T07:32:12.688Z,9.73
2022-10-30T07:37:34.505Z,11.13
2022-10-30T07:42:57.992Z,11.63
2022-10-30T07:48:20.057Z,11.27
2022-10-30T07:53:41.919Z,11.05
2022-10-30T07:59:03.741Z,11.82
2022-10-30T08:04:25.567Z,11.93
2022-10-30T08:09:47.382Z,10.25
2022-10-30T08:15:09.803Z,11.90
2022-10-30T08:20:31.614Z,10.55
2022-10-30T08:25:53.471Z,9.50
2022-10-30T08:31:15.299Z,9.68
2022-10-30T08:36:37.115Z,9.00
2022-10-30T08:41:59.291Z,10.18
2022-10-30T08:47:21.114Z,9.02
2022-10-30T08:52:42.981Z,10.23
2022-10-30T08:58:05.005Z,9.75
2022-10-30T09:03:26.859Z,9.60
2022-10-30T09:08:48.686Z,9.60
2022-10-30T09:14:10.555Z,9.52
2022-10-30T09:19:32.387Z,9.18
2022-10-30T09:24:54.213Z,9.95
2022-10-30T09:30:16.171Z,9.68
2022-10-30T09:35:38.056Z,10.40
2022-10-30T09:41:16.656Z,9.57
2022-10-30T09:47:11.683Z,8.93
2022-10-30T09:52:45.987Z,10.07
2022-10-30T09:58:35.630Z,9.30
2022-10-30T10:04:23.962Z,9.38
2022-10-30T10:09:51.415Z,7.65
2022-10-30T10:15:39.495Z,7.78
2022-10-30T10:21:14.016Z,6.75
2022-10-30T10:27:08.993Z,5.60
2022-10-30T10:32:39.913Z,4.30
2022-10-30T10:38:27.803Z,4.15
2022-10-30T10:43:55.382Z,4.28
2022-10-30T10:49:40.219Z,3.55
2022-10-30T10:55:27.076Z,3.78
2022-10-30T11:00:49.017Z,3.95
2022-10-30T11:06:25.832Z,3.92
2022-10-30T11:11:53.453Z,2.92
2022-10-30T11:17:24.131Z,2.70
2022-10-30T11:22:50.277Z,3.40
2022-10-30T11:28:34.633Z,3.22
2022-10-30T11:33:56.643Z,2.85
2022-10-30T11:39:22.504Z,2.42
2022-10-30T11:44:50.392Z,2.33
2022-10-30T11:50:22.036Z,12.18
2022-10-30T11:55:49.211Z,1.58
2022-10-30T12:01:22.256Z,1.80
2022-10-30T12:06:44.247Z,1.90
2022-10-30T12:12:21.508Z,1.60
2022-10-30T12:17:55.522Z,2.58
2022-10-30T12:23:20.792Z,1.90
2022-10-30T12:28:57.275Z,1.75
2022-10-30T12:34:25.136Z,1.80
2022-10-30T12:40:13.841Z,1.90
2022-10-30T12:45:44.853Z,1.80
2022-10-30T12:51:09.388Z,1.60
2022-10-30T12:56:38.910Z,1.92
2022-10-30T13:02:16.124Z,2.50
2022-10-30T13:07:50.175Z,2.22
2022-10-30T13:13:23.385Z,2.63
2022-10-30T13:18:45.252Z,3.63
2022-10-30T13:24:21.472Z,3.55
2022-10-30T13:30:04.772Z,4.03
2022-10-30T13:35:45.241Z,4.43
2022-10-30T13:41:19.932Z,5.05
2022-10-30T13:47:18.428Z,4.68
2022-10-30T13:52:48.487Z,4.70
2022-10-30T13:58:29.490Z,3.45
2022-10-30T14:04:06.623Z,3.70
2022-10-30T14:09:45.201Z,3.28
2022-10-30T14:15:18.971Z,4.07
2022-10-30T14:20:49.604Z,3.88
2022-10-30T14:26:19.432Z,3.28
2022-10-30T14:31:41.249Z,3.13
2022-10-30T14:37:03.301Z,3.10
2022-10-30T14:42:25.090Z,3.47
2022-10-30T14:47:46.872Z,3.10
2022-10-30T14:53:31.332Z,2.90
2022-10-30T14:59:12.424Z,3.53
2022-10-30T15:04:40.157Z,3.30
2022-10-30T15:10:21.983Z,3.60
2022-10-30T15:15:44.912Z,3.88
2022-10-30T15:21:07.621Z,4.25
2022-10-30T15:26:36.747Z,3.88
2022-10-30T15:32:25.284Z,4.05
2022-10-30T15:38:07.797Z,3.95
2022-10-30T15:43:33.644Z,3.75
2022-10-30T15:48:55.524Z,5.90
2022-10-30T15:54:20.473Z,3.97
2022-10-30T15:59:53.254Z,4.88
2022-10-30T16:05:22.925Z,4.57
2022-10-30T16:10:46.049Z,6.00
2022-10-30T16:16:16.782Z,5.32
2022-10-30T16:21:38.699Z,11.13
2022-10-30T16:27:14.069Z,5.60
2022-10-30T16:32:35.947Z,4.03
2022-10-30T16:37:58.077Z,3.88
2022-10-30T16:43:29.766Z,4.57
2022-10-30T16:48:59.309Z,5.57
2022-10-30T16:54:24.956Z,4.72
2022-10-30T16:59:51.007Z,4.80
2022-10-30T17:05:26.183Z,5.47
2022-10-30T17:10:47.985Z,5.32
2022-10-30T17:16:18.778Z,4.55
2022-10-30T17:21:42.478Z,5.85
2022-10-30T17:27:07.141Z,5.22
2022-10-30T17:32:42.814Z,6.50
2022-10-30T17:38:04.933Z,8.43
2022-10-30T17:43:33.337Z,6.65
2022-10-30T17:48:58.195Z,8.63
2022-10-30T17:54:20.279Z,9.20
2022-10-30T17:59:43.059Z,8.25
2022-10-30T18:05:21.613Z,7.60
2022-10-30T18:10:43.504Z,8.27
2022-10-30T18:16:05.784Z,7.68
2022-10-30T18:21:27.582Z,9.68
2022-10-30T18:26:49.408Z,7.55
2022-10-30T18:32:11.450Z,6.65
2022-10-30T18:37:33.267Z,6.85
2022-10-30T18:42:55.561Z,8.55
2022-10-30T18:48:17.353Z,7.53
2022-10-30T18:53:39.170Z,8.75
2022-10-30T18:59:02.541Z,7.95
2022-10-30T19:04:24.804Z,8.98
2022-10-30T19:09:47.097Z,8.93
2022-10-30T19:15:23.237Z,10.80
2022-10-30T19:21:03.250Z,11.68
2022-10-30T19:26:26.707Z,10.07
2022-10-30T19:31:48.517Z,9.35
2022-10-30T19:37:10.345Z,9.63
2022-10-30T19:42:32.159Z,9.25
2022-10-30T19:47:59.426Z,10.32
2022-10-30T19:53:21.264Z,9.82
2022-10-30T19:58:43.099Z,9.77
2022-10-30T20:04:04.909Z,12.85
2022-10-30T20:09:26.713Z,10.13
2022-10-30T20:14:48.533Z,15.95
2022-10-30T20:20:22.995Z,13.38
2022-10-30T20:25:45.183Z,15.45
2022-10-30T20:31:08.563Z,13.00
2022-10-30T20:36:30.421Z,12.95
2022-10-30T20:41:52.931Z,12.90
2022-10-30T20:47:14.755Z,17.10
2022-10-30T20:52:36.630Z,23.85
2022-10-30T20:57:58.824Z,24.00
2022-10-30T21:03:20.777Z,23.60
2022-10-30T21:08:42.632Z,22.20
2022-10-30T21:14:04.440Z,23.27
2022-10-30T21:19:26.654Z,25.08
2022-10-30T21:24:48.510Z,23.67
2022-10-30T21:30:10.964Z,23.48
2022-10-30T21:35:33.690Z,26.55
2022-10-30T21:40:55.989Z,25.75
2022-10-30T21:46:18.638Z,25.05
2022-10-30T21:51:40.476Z,27.52
2022-10-30T21:57:02.369Z,27.90
2022-10-30T22:02:24.236Z,26.95
2022-10-30T22:07:46.058Z,24.20
2022-10-30T22:13:07.948Z,24.10
2022-10-30T22:18:29.876Z,23.85
2022-10-30T22:23:51.688Z,24.60
2022-10-30T22:29:13.658Z,24.30
2022-10-30T22:34:35.468Z,27.63
2022-10-30T22:39:57.282Z,28.85
2022-10-30T22:45:19.104Z,27.65
2022-10-30T22:50:40.933Z,29.67
2022-10-30T22:56:21.376Z,27.05
2022-10-30T23:01:43.283Z,27.45
2022-10-30T23:07:05.145Z,26.83
2022-10-30T23:12:27.100Z,26.42
2022-10-30T23:17:49.617Z,26.17
2022-10-30T23:23:12.042Z,28.83
2022-10-30T23:28:33.932Z,27.90
2022-10-30T23:33:58.427Z,27.67
2022-10-30T23:39:20.220Z,27.17
2022-10-30T23:44:42.033Z,26.90
2022-10-30T23:50:04.216Z,26.08
2022-10-30T23:55:26.023Z,26.42
